createdAt,value
2019-05-10T00:17:00.379Z,99.90
2019-05-10T00:31:33.546Z,99.90
2019-05-10T01:07:25.000Z,99.90
2019-05-10T01:12:55.254Z,99.90
2019-05-10T01:15:23.850Z,99.90
2019-05-10T01:17:50.869Z,99.90
2019-05-10T01:20:18.105Z,99.90
2019-05-10T01:22:45.190Z,99.90
2019-05-10T01:25:12.084Z,99.90
2019-05-10T03:26:51.098Z,99.90
2019-05-10T03:29:11.293Z,99.90
2019-05-10T03:31:40.161Z,99.90
2019-05-10T03:34:07.033Z,99.90
2019-05-10T03:36:33.700Z,99.90
2019-05-10T03:39:00.675Z,99.90
2019-05-10T03:41:34.388Z,99.90
2019-05-10T03:44:01.358Z,99.90
2019-05-10T03:46:28.383Z,99.90
2019-05-10T03:48:55.193Z,99.90
2019-05-10T04:44:10.398Z,99.90
2019-05-10T04:52:37.191Z,99.90
2019-05-10T05:01:14.461Z,99.90
2019-05-10T05:09:49.466Z,99.90
2019-05-10T05:27:25.146Z,99.90
2019-05-10T05:29:51.706Z,99.90
2019-05-10T05:32:18.264Z,99.90
2019-05-10T05:34:44.851Z,99.90
2019-05-10T05:37:11.384Z,99.90
2019-05-10T05:39:37.964Z,99.90
2019-05-10T05:42:04.525Z,99.90
2019-05-10T05:44:31.145Z,99.90
2019-05-10T05:46:58.698Z,99.90
2019-05-10T05:49:25.241Z,99.90
2019-05-10T05:51:51.799Z,99.90
2019-05-10T05:54:20.702Z,99.90
2019-05-10T05:56:50.854Z,99.90
2019-05-10T05:59:17.511Z,99.90
2019-05-10T06:01:45.191Z,99.90
2019-05-10T06:04:12.778Z,99.90
2019-05-10T06:06:39.436Z,99.90
2019-05-10T06:09:06.504Z,99.90
2019-05-10T06:11:35.821Z,99.90
2019-05-10T06:14:10.387Z,99.90
2019-05-10T06:16:31.355Z,99.90
2019-05-10T06:18:57.907Z,99.90
2019-05-10T06:21:28.373Z,99.90
2019-05-10T06:23:54.951Z,99.90
2019-05-10T06:26:28.160Z,99.90
2019-05-10T06:29:01.316Z,99.90
2019-05-10T06:31:18.342Z,99.90
2019-05-10T06:33:46.682Z,99.90
2019-05-10T06:36:13.985Z,99.90
2019-05-10T06:38:40.550Z,99.90
2019-05-10T06:41:10.157Z,99.90
2019-05-10T06:43:35.474Z,99.90
2019-05-10T06:46:02.131Z,99.90
2019-05-10T06:48:33.286Z,99.90
2019-05-10T06:50:57.030Z,99.90
2019-05-10T06:53:23.620Z,99.90
2019-05-10T06:55:50.233Z,99.90
2019-05-10T06:58:17.787Z,99.90
2019-05-10T07:00:45.415Z,99.90
2019-05-10T07:03:12.764Z,99.90
2019-05-10T07:05:39.286Z,99.90
2019-05-10T07:08:15.060Z,99.90
2019-05-10T07:10:34.205Z,99.90
2019-05-10T07:13:03.684Z,99.90
2019-05-10T07:15:29.072Z,99.90
2019-05-10T07:17:55.613Z,99.90
2019-05-10T07:20:23.822Z,99.90
2019-05-10T07:22:50.485Z,99.90
2019-05-10T07:25:18.219Z,99.90
2019-05-10T07:27:44.865Z,99.90
2019-05-10T07:30:12.027Z,99.90
2019-05-10T07:32:38.627Z,99.90
2019-05-10T07:35:05.452Z,99.90
2019-05-10T07:37:32.098Z,99.90
2019-05-10T07:39:58.644Z,99.90
2019-05-10T07:42:25.286Z,99.90
2019-05-10T07:44:51.866Z,99.90
2019-05-10T07:47:18.418Z,99.90
2019-05-10T07:49:45.065Z,99.90
2019-05-10T07:52:11.712Z,99.90
2019-05-10T07:54:45.483Z,99.90
2019-05-10T07:57:06.763Z,99.90
2019-05-10T07:59:49.567Z,99.90
2019-05-10T08:02:09.758Z,99.90
2019-05-10T08:04:33.549Z,99.90
2019-05-10T08:06:59.724Z,99.90
2019-05-10T08:09:26.542Z,99.90
2019-05-10T08:11:53.959Z,99.90
2019-05-10T08:14:24.943Z,99.90
2019-05-10T08:16:58.140Z,99.90
2019-05-10T08:19:18.270Z,99.90
2019-05-10T08:21:48.667Z,99.90
2019-05-10T08:24:16.533Z,99.90
2019-05-10T08:26:42.643Z,99.90
2019-05-10T08:29:13.396Z,99.90
2019-05-10T08:31:40.871Z,99.90
2019-05-10T08:34:06.769Z,99.90
2019-05-10T08:36:37.166Z,99.90
2019-05-10T08:39:10.395Z,99.90
2019-05-10T08:41:32.679Z,99.90
2019-05-10T08:44:02.380Z,99.90
2019-05-10T08:46:37.240Z,99.90
2019-05-10T08:48:57.228Z,99.90
2019-05-10T08:51:23.794Z,99.90
2019-05-10T08:53:55.833Z,99.90
2019-05-10T08:56:21.685Z,99.90
2019-05-10T08:58:47.274Z,99.90
2019-05-10T09:01:25.806Z,99.90
2019-05-10T09:03:42.305Z,99.90
2019-05-10T09:06:11.711Z,99.90
2019-05-10T09:08:38.163Z,99.90
2019-05-10T09:11:06.971Z,99.90
2019-05-10T09:13:37.215Z,99.90
2019-05-10T09:16:02.381Z,99.90
2019-05-10T09:18:29.239Z,99.90
2019-05-10T09:21:00.488Z,99.90
2019-05-10T09:23:24.193Z,99.90
2019-05-10T09:25:51.868Z,99.90
2019-05-10T09:28:18.723Z,99.90
2019-05-10T09:30:56.465Z,99.90
2019-05-10T09:33:14.654Z,99.90
2019-05-10T09:35:47.043Z,99.90
2019-05-10T09:38:12.279Z,99.90
2019-05-10T09:40:42.503Z,99.90
2019-05-10T09:43:09.696Z,99.90
2019-05-10T09:45:34.979Z,99.90
2019-05-10T09:48:04.182Z,99.90
2019-05-10T09:50:41.029Z,99.90
2019-05-10T09:52:59.108Z,99.90
2019-05-10T09:55:27.846Z,99.90
2019-05-10T09:57:54.140Z,99.90
2019-05-10T10:00:30.371Z,99.90
2019-05-10T10:03:01.575Z,99.90
2019-05-10T10:05:25.372Z,99.90
2019-05-10T10:07:51.925Z,99.90
2019-05-10T10:10:28.581Z,98.30
2019-05-10T10:12:47.584Z,99.90
2019-05-10T10:15:25.290Z,99.90
2019-05-10T10:17:43.927Z,99.90
2019-05-10T10:20:10.877Z,96.80
2019-05-10T10:22:38.275Z,99.90
2019-05-10T10:25:07.166Z,99.90
2019-05-10T10:27:39.507Z,99.90
2019-05-10T10:30:12.789Z,93.90
2019-05-10T10:32:37.627Z,94.70
2019-05-10T10:35:04.590Z,95.10
2019-05-10T10:37:31.497Z,94.10
2019-05-10T10:40:00.695Z,98.20
2019-05-10T10:42:26.457Z,95.70
2019-05-10T10:44:53.093Z,96.60
2019-05-10T10:47:22.801Z,93.00
2019-05-10T10:49:49.907Z,94.00
2019-05-10T10:52:17.227Z,94.60
2019-05-10T10:54:43.955Z,95.90
2019-05-10T10:57:10.606Z,92.00
2019-05-10T10:59:37.446Z,94.90
2019-05-10T11:02:28.914Z,96.10
2019-05-10T11:04:32.971Z,97.40
2019-05-10T11:07:09.795Z,93.20
2019-05-10T11:09:27.854Z,93.10
2019-05-10T11:11:54.416Z,91.70
2019-05-10T11:14:20.971Z,94.80
2019-05-10T11:16:55.460Z,92.20
2019-05-10T11:19:15.988Z,90.60
2019-05-10T11:21:42.537Z,96.90
2019-05-10T11:24:10.449Z,96.10
2019-05-10T11:26:37.551Z,91.60
2019-05-10T11:29:04.108Z,87.20
2019-05-10T11:31:31.280Z,92.90
2019-05-10T11:34:00.917Z,96.90
2019-05-10T11:36:26.415Z,92.70
2019-05-10T11:38:58.375Z,91.40
2019-05-10T11:41:24.611Z,91.40
2019-05-10T11:43:51.346Z,77.70
2019-05-10T11:46:17.929Z,82.10
2019-05-10T11:48:44.518Z,83.30
2019-05-10T11:51:16.005Z,85.70
2019-05-10T11:53:41.476Z,77.30
2019-05-10T11:56:13.617Z,78.00
2019-05-10T11:58:37.572Z,77.40
2019-05-10T12:01:14.831Z,73.80
2019-05-10T12:03:33.134Z,70.00
2019-05-10T12:08:28.008Z,65.20
2019-05-10T12:11:07.300Z,62.20
2019-05-10T12:13:25.020Z,64.50
2019-05-10T12:15:52.230Z,61.50
2019-05-10T12:18:26.341Z,58.50
2019-05-10T12:20:56.540Z,58.40
2019-05-10T12:23:22.785Z,57.90
2019-05-10T12:25:59.254Z,58.90
2019-05-10T12:25:59.930Z,68.80
2019-05-10T12:28:15.469Z,55.40
2019-05-10T12:30:41.157Z,53.90
2019-05-10T12:33:09.881Z,55.20
2019-05-10T12:35:40.850Z,56.20
2019-05-10T12:38:04.506Z,55.10
2019-05-10T12:40:31.511Z,52.90
2019-05-10T12:43:00.549Z,54.20
2019-05-10T12:45:26.804Z,53.50
2019-05-10T12:47:53.370Z,61.70
2019-05-10T12:50:20.528Z,51.30
2019-05-10T12:52:53.121Z,52.20
2019-05-10T12:55:18.004Z,54.90
2019-05-10T12:57:44.999Z,52.30
2019-05-10T13:00:13.099Z,51.70
2019-05-10T13:02:44.838Z,54.60
2019-05-10T13:05:08.842Z,48.80
2019-05-10T13:07:37.056Z,51.40
2019-05-10T13:10:08.286Z,50.50
2019-05-10T13:12:36.914Z,50.60
2019-05-10T13:15:05.539Z,51.20
2019-05-10T13:17:32.161Z,50.60
2019-05-10T13:20:00.018Z,48.70
2019-05-10T13:22:37.105Z,51.90
2019-05-10T13:24:55.515Z,50.50
2019-05-10T13:27:22.094Z,51.10
2019-05-10T13:29:53.494Z,52.10
2019-05-10T13:32:20.707Z,48.00
2019-05-10T13:34:47.431Z,48.70
2019-05-10T13:37:23.064Z,48.10
2019-05-10T13:39:42.451Z,47.60
2019-05-10T13:42:14.845Z,48.60
2019-05-10T13:44:42.791Z,49.90
2019-05-10T13:47:09.975Z,48.60
2019-05-10T13:49:36.669Z,47.50
2019-05-10T13:52:03.468Z,48.30
2019-05-10T13:54:31.333Z,49.00
2019-05-10T13:57:00.472Z,48.90
2019-05-10T13:59:28.388Z,46.80
2019-05-10T14:02:03.360Z,47.70
2019-05-10T14:04:34.097Z,47.90
2019-05-10T14:07:02.695Z,49.00
2019-05-10T14:09:29.388Z,46.40
2019-05-10T14:11:56.108Z,49.00
2019-05-10T14:14:26.770Z,45.70
2019-05-10T14:16:56.049Z,45.30
2019-05-10T14:19:23.644Z,43.10
2019-05-10T14:21:53.139Z,43.10
2019-05-10T14:24:19.916Z,43.10
2019-05-10T14:26:46.480Z,41.70
2019-05-10T14:29:13.162Z,43.40
2019-05-10T14:31:39.789Z,41.40
2019-05-10T14:34:15.315Z,38.20
2019-05-10T14:36:40.740Z,37.80
2019-05-10T14:39:06.620Z,38.10
2019-05-10T14:41:33.323Z,36.90
2019-05-10T14:43:59.931Z,37.50
2019-05-10T14:46:26.463Z,38.90
2019-05-10T14:48:53.208Z,42.20
2019-05-10T14:51:19.886Z,39.30
2019-05-10T14:53:46.534Z,37.50
2019-05-10T14:56:14.141Z,38.40
2019-05-10T14:58:41.512Z,37.70
2019-05-10T15:01:08.286Z,39.80
2019-05-10T15:03:44.879Z,36.70
2019-05-10T15:06:04.146Z,33.30
2019-05-10T15:08:30.694Z,33.20
2019-05-10T15:10:57.496Z,32.20
2019-05-10T15:13:26.077Z,32.00
2019-05-10T15:15:52.414Z,31.50
2019-05-10T15:18:20.593Z,32.30
2019-05-10T15:20:47.198Z,32.20
2019-05-10T15:23:13.844Z,31.10
2019-05-10T15:25:55.821Z,31.80
2019-05-10T15:28:09.067Z,31.90
2019-05-10T15:30:39.426Z,31.80
2019-05-10T15:33:04.381Z,32.40
2019-05-10T15:35:30.968Z,32.90
2019-05-10T15:37:57.932Z,34.80
2019-05-10T15:40:24.534Z,35.30
2019-05-10T15:42:51.316Z,32.30
2019-05-10T15:45:19.426Z,34.00
2019-05-10T15:47:51.101Z,33.90
2019-05-10T15:50:15.534Z,34.80
2019-05-10T15:52:46.301Z,35.90
2019-05-10T15:55:11.377Z,35.60
2019-05-10T15:57:39.341Z,37.30
2019-05-10T16:00:06.741Z,40.00
2019-05-10T16:02:33.837Z,42.60
2019-05-10T16:05:00.748Z,42.70
2019-05-10T16:07:27.264Z,43.00
2019-05-10T16:09:56.050Z,44.10
2019-05-10T16:12:23.850Z,45.50
2019-05-10T16:14:51.167Z,44.40
2019-05-10T16:17:23.026Z,44.40
2019-05-10T16:19:51.057Z,46.80
2019-05-10T16:22:14.471Z,45.00
2019-05-10T16:24:41.023Z,46.00
2019-05-10T16:27:07.593Z,47.40
2019-05-10T16:29:39.755Z,49.50
2019-05-10T16:32:02.755Z,48.90
2019-05-10T16:34:32.289Z,46.90
2019-05-10T16:36:58.119Z,48.00
2019-05-10T16:39:24.711Z,48.40
2019-05-10T16:41:51.304Z,49.00
2019-05-10T16:44:20.907Z,49.60
2019-05-10T16:46:47.394Z,48.30
2019-05-10T16:49:15.564Z,49.00
2019-05-10T16:51:47.050Z,49.60
2019-05-10T16:54:13.479Z,50.00
2019-05-10T16:56:39.301Z,50.40
2019-05-10T16:59:05.963Z,51.20
2019-05-10T17:01:33.591Z,52.80
2019-05-10T17:04:01.892Z,52.60
2019-05-10T17:06:28.627Z,52.70
2019-05-10T17:08:55.206Z,52.80
2019-05-10T17:11:21.894Z,53.20
2019-05-10T17:13:48.507Z,53.90
2019-05-10T17:16:16.875Z,53.80
2019-05-10T17:18:43.678Z,53.50
2019-05-10T17:21:10.226Z,55.20
2019-05-10T17:23:41.462Z,54.60
2019-05-10T17:26:05.360Z,54.20
2019-05-10T17:28:35.380Z,55.10
2019-05-10T17:31:07.566Z,55.90
2019-05-10T17:33:28.805Z,57.20
2019-05-10T17:36:07.523Z,56.60
2019-05-10T17:38:23.889Z,57.50
2019-05-10T17:40:50.451Z,57.90
2019-05-10T17:43:20.502Z,58.30
2019-05-10T17:45:45.364Z,59.30
2019-05-10T17:48:12.929Z,59.80
2019-05-10T17:50:39.511Z,60.30
2019-05-10T17:53:06.058Z,61.40
2019-05-10T17:55:32.732Z,62.30
2019-05-10T17:57:59.379Z,65.20
2019-05-10T18:00:26.049Z,71.60
2019-05-10T18:02:52.610Z,67.70
2019-05-10T18:05:19.167Z,69.80
2019-05-10T18:07:46.149Z,74.70
2019-05-10T18:10:12.916Z,78.50
2019-05-10T18:12:39.447Z,83.70
2019-05-10T18:15:06.826Z,88.90
2019-05-10T18:17:33.384Z,90.10
2019-05-10T18:20:03.926Z,92.10
2019-05-10T18:22:41.790Z,91.80
2019-05-10T18:25:00.119Z,90.70
2019-05-10T18:27:26.711Z,91.00
2019-05-10T18:29:53.285Z,89.70
2019-05-10T18:32:19.878Z,91.20
2019-05-10T18:34:47.359Z,91.40
2019-05-10T18:37:15.882Z,91.50
2019-05-10T18:39:42.679Z,92.00
2019-05-10T18:42:11.035Z,91.60
2019-05-10T18:44:37.610Z,92.70
2019-05-10T18:47:04.607Z,92.90
2019-05-10T18:49:31.166Z,92.70
2019-05-10T18:52:03.899Z,91.60
2019-05-10T18:54:28.827Z,91.50
2019-05-10T18:56:57.956Z,92.80
2019-05-10T18:59:26.642Z,94.20
2019-05-10T19:01:53.226Z,94.40
2019-05-10T19:04:19.933Z,95.10
2019-05-10T19:06:49.982Z,95.70
2019-05-10T19:09:15.019Z,94.90
2019-05-10T19:11:41.646Z,95.60
2019-05-10T19:14:08.283Z,95.20
2019-05-10T19:16:34.844Z,95.50
2019-05-10T19:19:01.798Z,96.10
2019-05-10T19:21:30.784Z,96.90
2019-05-10T19:23:58.475Z,97.10
2019-05-10T19:26:29.468Z,96.90
2019-05-10T19:28:53.408Z,96.80
2019-05-10T19:31:20.108Z,97.40
2019-05-10T19:33:46.776Z,98.10
2019-05-10T19:36:14.710Z,99.30
2019-05-10T19:38:41.451Z,99.80
2019-05-10T19:41:08.181Z,99.40
2019-05-10T19:43:34.748Z,99.90
2019-05-10T19:46:01.413Z,99.90
2019-05-10T19:48:35.141Z,99.90
2019-05-10T19:50:57.436Z,99.90
2019-05-10T19:53:26.244Z,99.90
2019-05-10T19:55:57.223Z,99.90
2019-05-10T19:58:26.494Z,99.90
2019-05-10T20:00:52.223Z,99.90
2019-05-10T20:03:18.919Z,99.90
2019-05-10T20:05:45.486Z,99.90
2019-05-10T20:08:12.152Z,99.90
2019-05-10T20:10:38.994Z,99.90
2019-05-10T20:13:05.565Z,99.90
2019-05-10T20:15:32.270Z,99.90
2019-05-10T20:17:59.117Z,99.90
2019-05-10T20:20:25.961Z,99.90
2019-05-10T20:22:52.546Z,99.90
2019-05-10T20:25:19.195Z,99.90
2019-05-10T20:27:45.870Z,99.90
2019-05-10T20:30:14.353Z,99.90
2019-05-10T20:32:41.497Z,99.90
2019-05-10T20:35:08.608Z,99.90
2019-05-10T20:37:35.199Z,99.90
2019-05-10T20:40:02.882Z,99.90
2019-05-10T20:42:31.106Z,99.90
2019-05-10T20:45:08.017Z,99.90
2019-05-10T20:47:37.643Z,99.90
2019-05-10T20:50:09.459Z,99.90
2019-05-10T20:52:36.877Z,99.90
2019-05-10T20:55:05.039Z,99.90
2019-05-10T20:57:36.271Z,99.90
2019-05-10T21:00:09.912Z,99.90
2019-05-10T21:02:39.750Z,99.90
2019-05-10T21:05:08.956Z,99.90
2019-05-10T21:07:38.061Z,99.90
2019-05-10T21:10:11.964Z,99.90
2019-05-10T21:12:39.356Z,99.90
2019-05-10T21:15:06.466Z,99.90
2019-05-10T21:20:06.510Z,99.90
2019-05-10T21:22:33.439Z,99.90
2019-05-10T21:25:00.231Z,99.90
2019-05-10T21:27:27.017Z,99.90
2019-05-10T21:29:53.571Z,99.90
2019-05-10T21:32:20.150Z,99.90
2019-05-10T21:34:46.873Z,99.90
2019-05-10T21:37:13.439Z,99.90
2019-05-10T21:39:40.011Z,99.90
2019-05-10T21:42:16.955Z,99.90
2019-05-10T21:48:00.100Z,99.90
2019-05-10T21:50:27.066Z,99.90
2019-05-10T21:58:32.157Z,99.90
2019-05-10T22:04:05.380Z,99.90
2019-05-10T22:06:59.550Z,99.90
2019-05-10T22:15:20.096Z,99.90
2019-05-10T22:17:50.635Z,99.90
2019-05-10T22:20:19.674Z,99.90
2019-05-10T22:22:47.429Z,99.90
2019-05-10T22:25:17.236Z,99.90
2019-05-10T22:27:52.108Z,99.90
2019-05-10T22:30:22.323Z,99.90
2019-05-10T22:32:49.605Z,99.90
2019-05-10T22:35:16.361Z,99.90
2019-05-10T22:37:42.966Z,99.90
2019-05-10T22:40:09.823Z,99.90
2019-05-10T22:42:36.478Z,99.90
2019-05-10T22:45:05.542Z,99.90
2019-05-10T22:47:32.132Z,99.90
2019-05-10T22:49:58.804Z,99.90
2019-05-10T22:52:25.384Z,99.90
2019-05-10T22:54:51.961Z,99.90
2019-05-10T22:57:18.548Z,99.90
2019-05-10T22:59:45.226Z,99.90
2019-05-10T23:02:11.816Z,99.90
2019-05-10T23:04:38.487Z,99.90
2019-05-10T23:07:05.068Z,99.90
2019-05-10T23:09:31.860Z,99.90
2019-05-10T23:11:58.418Z,99.90
2019-05-10T23:14:25.118Z,99.90
2019-05-10T23:16:51.677Z,99.90
2019-05-10T23:19:18.360Z,99.90
2019-05-10T23:21:45.062Z,99.90
2019-05-10T23:24:13.549Z,99.90
2019-05-10T23:26:40.259Z,99.90
2019-05-10T23:29:06.847Z,99.90
2019-05-10T23:31:35.424Z,99.90
2019-05-10T23:34:01.765Z,99.90
2019-05-10T23:36:28.441Z,99.90
2019-05-10T23:38:55.003Z,99.90
2019-05-10T23:41:21.693Z,99.90
2019-05-10T23:43:48.282Z,99.90
2019-05-10T23:46:14.842Z,99.90
2019-05-10T23:48:41.475Z,99.90
2019-05-10T23:51:12.356Z,99.90
2019-05-10T23:53:42.423Z,99.90
2019-05-10T23:56:10.093Z,99.90
2019-05-10T23:58:40.394Z,99.90
